sensor_id;sensor_type;location;lat;lon;timestamp;P1;durP1;ratioP1;P2;durP2;ratioP2
45314;SDS011;31051;51.540;5.852;2023-07-24T00:12:31;3.7;;;2.7;;
45314;SDS011;31051;51.540;5.852;2023-07-24T00:25:30;4.4;;;3.3;;
45314;SDS011;31051;51.540;5.852;2023-07-24T00:38:18;4.1;;;3.4;;
45314;SDS011;31051;51.540;5.852;2023-07-24T00:51:06;4.9;;;3.7;;
45314;SDS011;31051;51.540;5.852;2023-07-24T01:03:55;4.9;;;4.3;;
45314;SDS011;31051;51.540;5.852;2023-07-24T01:16:43;5.7;;;4.8;;
45314;SDS011;31051;51.540;5.852;2023-07-24T01:29:31;6.2;;;4.8;;
45314;SDS011;31051;51.540;5.852;2023-07-24T01:42:21;5.8;;;5.0;;
45314;SDS011;31051;51.540;5.852;2023-07-24T01:55:19;5.4;;;4.8;;
45314;SDS011;31051;51.540;5.852;2023-07-24T02:08:07;5.9;;;5.1;;
45314;SDS011;31051;51.540;5.852;2023-07-24T02:20:56;5.9;;;5.2;;
45314;SDS011;31051;51.540;5.852;2023-07-24T02:33:44;6.9;;;6.0;;
45314;SDS011;31051;51.540;5.852;2023-07-24T02:46:33;6.6;;;5.6;;
45314;SDS011;31051;51.540;5.852;2023-07-24T02:59:33;6.9;;;6.0;;
45314;SDS011;31051;51.540;5.852;2023-07-24T03:12:32;8.1;;;6.6;;
45314;SDS011;31051;51.540;5.852;2023-07-24T03:25:31;6.0;;;4.9;;
45314;SDS011;31051;51.540;5.852;2023-07-24T03:38:31;3.2;;;2.7;;
45314;SDS011;31051;51.540;5.852;2023-07-24T03:51:30;2.7;;;2.1;;
45314;SDS011;31051;51.540;5.852;2023-07-24T04:04:29;2.6;;;2.2;;
45314;SDS011;31051;51.540;5.852;2023-07-24T04:17:29;2.6;;;2.3;;
45314;SDS011;31051;51.540;5.852;2023-07-24T04:30:28;2.9;;;2.6;;
45314;SDS011;31051;51.540;5.852;2023-07-24T04:43:28;2.9;;;2.5;;
45314;SDS011;31051;51.540;5.852;2023-07-24T04:56:27;3.2;;;2.8;;
45314;SDS011;31051;51.540;5.852;2023-07-24T05:09:25;3.8;;;3.4;;
45314;SDS011;31051;51.540;5.852;2023-07-24T05:22:15;4.2;;;3.8;;
45314;SDS011;31051;51.540;5.852;2023-07-24T05:48:14;4.4;;;4.0;;
45314;SDS011;31051;51.540;5.852;2023-07-24T06:01:13;4.4;;;4.1;;
45314;SDS011;31051;51.540;5.852;2023-07-24T06:14:12;4.8;;;4.4;;
45314;SDS011;31051;51.540;5.852;2023-07-24T06:27:12;5.9;;;5.4;;
45314;SDS011;31051;51.540;5.852;2023-07-24T06:40:11;5.6;;;5.1;;
45314;SDS011;31051;51.540;5.852;2023-07-24T06:53:10;4.7;;;4.3;;
45314;SDS011;31051;51.540;5.852;2023-07-24T07:06:10;4.2;;;3.9;;
45314;SDS011;31051;51.540;5.852;2023-07-24T07:19:09;4.8;;;4.3;;
45314;SDS011;31051;51.540;5.852;2023-07-24T07:32:08;4.0;;;3.6;;
45314;SDS011;31051;51.540;5.852;2023-07-24T07:45:08;4.5;;;4.0;;
45314;SDS011;31051;51.540;5.852;2023-07-24T07:58:07;4.0;;;3.6;;
45314;SDS011;31051;51.540;5.852;2023-07-24T08:11:06;3.7;;;3.2;;
45314;SDS011;31051;51.540;5.852;2023-07-24T08:23:55;3.7;;;3.4;;
45314;SDS011;31051;51.540;5.852;2023-07-24T08:36:54;3.8;;;2.9;;
45314;SDS011;31051;51.540;5.852;2023-07-24T08:49:54;3.7;;;3.4;;
45314;SDS011;31051;51.540;5.852;2023-07-24T09:02:53;3.8;;;3.2;;
45314;SDS011;31051;51.540;5.852;2023-07-24T09:15:53;3.8;;;3.3;;
45314;SDS011;31051;51.540;5.852;2023-07-24T09:28:52;3.8;;;3.4;;
45314;SDS011;31051;51.540;5.852;2023-07-24T09:41:51;3.6;;;3.0;;
45314;SDS011;31051;51.540;5.852;2023-07-24T09:54:50;3.9;;;3.5;;
45314;SDS011;31051;51.540;5.852;2023-07-24T10:07:39;3.6;;;3.2;;
45314;SDS011;31051;51.540;5.852;2023-07-24T10:20:38;3.7;;;3.3;;
45314;SDS011;31051;51.540;5.852;2023-07-24T10:33:27;3.6;;;3.3;;
45314;SDS011;31051;51.540;5.852;2023-07-24T10:46:26;4.2;;;3.7;;
45314;SDS011;31051;51.540;5.852;2023-07-24T10:59:25;4.6;;;4.1;;
45314;SDS011;31051;51.540;5.852;2023-07-24T11:12:13;4.6;;;4.2;;
45314;SDS011;31051;51.540;5.852;2023-07-24T11:25:01;5.6;;;5.0;;
45314;SDS011;31051;51.540;5.852;2023-07-24T11:37:51;6.0;;;5.4;;
45314;SDS011;31051;51.540;5.852;2023-07-24T11:50:50;3.8;;;3.5;;
45314;SDS011;31051;51.540;5.852;2023-07-24T12:03:50;3.0;;;2.8;;
45314;SDS011;31051;51.540;5.852;2023-07-24T12:16:48;3.7;;;3.4;;
45314;SDS011;31051;51.540;5.852;2023-07-24T12:29:37;4.3;;;3.9;;
45314;SDS011;31051;51.540;5.852;2023-07-24T12:42:37;5.0;;;4.6;;
45314;SDS011;31051;51.540;5.852;2023-07-24T12:55:36;4.9;;;4.5;;
45314;SDS011;31051;51.540;5.852;2023-07-24T13:08:35;4.9;;;4.4;;
45314;SDS011;31051;51.540;5.852;2023-07-24T13:21:24;5.6;;;4.9;;
45314;SDS011;31051;51.540;5.852;2023-07-24T13:34:23;6.8;;;6.2;;
45314;SDS011;31051;51.540;5.852;2023-07-24T13:47:12;6.0;;;5.5;;
45314;SDS011;31051;51.540;5.852;2023-07-24T14:00:10;6.2;;;5.6;;
45314;SDS011;31051;51.540;5.852;2023-07-24T14:13:00;5.8;;;5.2;;
45314;SDS011;31051;51.540;5.852;2023-07-24T14:25:58;5.1;;;4.6;;
45314;SDS011;31051;51.540;5.852;2023-07-24T14:38:47;6.7;;;3.5;;
45314;SDS011;31051;51.540;5.852;2023-07-24T14:51:47;4.5;;;3.7;;
45314;SDS011;31051;51.540;5.852;2023-07-24T15:04:45;6.9;;;6.2;;
45314;SDS011;31051;51.540;5.852;2023-07-24T15:17:34;6.2;;;5.6;;
45314;SDS011;31051;51.540;5.852;2023-07-24T15:30:34;6.4;;;5.8;;
45314;SDS011;31051;51.540;5.852;2023-07-24T15:43:32;6.9;;;6.1;;
45314;SDS011;31051;51.540;5.852;2023-07-24T15:56:21;8.3;;;6.7;;
45314;SDS011;31051;51.540;5.852;2023-07-24T16:09:21;5.7;;;4.9;;
45314;SDS011;31051;51.540;5.852;2023-07-24T16:22:20;2.6;;;1.9;;
45314;SDS011;31051;51.540;5.852;2023-07-24T16:35:19;3.2;;;2.5;;
45314;SDS011;31051;51.540;5.852;2023-07-24T16:48:08;4.3;;;3.8;;
45314;SDS011;31051;51.540;5.852;2023-07-24T17:01:07;8.6;;;7.8;;
45314;SDS011;31051;51.540;5.852;2023-07-24T17:14:06;7.3;;;6.5;;
45314;SDS011;31051;51.540;5.852;2023-07-24T17:26:55;7.6;;;6.5;;
45314;SDS011;31051;51.540;5.852;2023-07-24T17:39:53;9.4;;;8.3;;
45314;SDS011;31051;51.540;5.852;2023-07-24T17:52:43;6.1;;;3.2;;
45314;SDS011;31051;51.540;5.852;2023-07-24T18:05:42;4.8;;;3.0;;
45314;SDS011;31051;51.540;5.852;2023-07-24T18:18:42;5.7;;;3.0;;
45314;SDS011;31051;51.540;5.852;2023-07-24T18:31:41;4.6;;;2.4;;
45314;SDS011;31051;51.540;5.852;2023-07-24T18:44:40;4.2;;;2.1;;
45314;SDS011;31051;51.540;5.852;2023-07-24T18:57:40;2.4;;;1.4;;
45314;SDS011;31051;51.540;5.852;2023-07-24T19:10:39;2.9;;;1.3;;
45314;SDS011;31051;51.540;5.852;2023-07-24T19:36:38;2.7;;;1.3;;
45314;SDS011;31051;51.540;5.852;2023-07-24T19:49:37;3.3;;;1.5;;
45314;SDS011;31051;51.540;5.852;2023-07-24T20:02:37;2.9;;;1.5;;
45314;SDS011;31051;51.540;5.852;2023-07-24T20:15:36;3.1;;;1.6;;
45314;SDS011;31051;51.540;5.852;2023-07-24T20:28:35;4.0;;;1.8;;
45314;SDS011;31051;51.540;5.852;2023-07-24T20:41:35;3.8;;;1.8;;
45314;SDS011;31051;51.540;5.852;2023-07-24T20:54:34;4.2;;;1.8;;
45314;SDS011;31051;51.540;5.852;2023-07-24T21:07:33;5.3;;;2.0;;
45314;SDS011;31051;51.540;5.852;2023-07-24T21:20:33;4.7;;;2.1;;
45314;SDS011;31051;51.540;5.852;2023-07-24T21:33:32;4.5;;;2.1;;
45314;SDS011;31051;51.540;5.852;2023-07-24T21:46:31;4.8;;;2.2;;
45314;SDS011;31051;51.540;5.852;2023-07-24T21:59:31;4.2;;;2.2;;
45314;SDS011;31051;51.540;5.852;2023-07-24T22:12:30;4.3;;;2.0;;
45314;SDS011;31051;51.540;5.852;2023-07-24T22:25:30;4.8;;;2.4;;
45314;SDS011;31051;51.540;5.852;2023-07-24T22:38:29;3.7;;;2.2;;
45314;SDS011;31051;51.540;5.852;2023-07-24T22:51:28;4.3;;;2.3;;
45314;SDS011;31051;51.540;5.852;2023-07-24T23:04:28;4.1;;;2.4;;
45314;SDS011;31051;51.540;5.852;2023-07-24T23:17:27;3.9;;;2.3;;
45314;SDS011;31051;51.540;5.852;2023-07-24T23:30:26;4.5;;;2.5;;
45314;SDS011;31051;51.540;5.852;2023-07-24T23:43:26;6.6;;;2.8;;
45314;SDS011;31051;51.540;5.852;2023-07-24T23:56:25;5.0;;;2.6;;
